createdAt,value
2023-02-19T00:02:08.379Z,9.23
2023-02-19T00:04:35.222Z,9.28
2023-02-19T00:07:02.121Z,9.39
2023-02-19T00:09:29.061Z,9.19
2023-02-19T00:11:55.953Z,9.33
2023-02-19T00:14:22.870Z,9.71
2023-02-19T00:16:49.858Z,9.62
2023-02-19T00:19:19.831Z,9.86
2023-02-19T00:21:47.607Z,9.83
2023-02-19T00:24:15.380Z,9.87
2023-02-19T00:26:43.488Z,9.66
2023-02-19T00:29:14.336Z,9.70
2023-02-19T00:31:42.531Z,9.93
2023-02-19T00:34:10.552Z,9.84
2023-02-19T00:36:39.520Z,9.63
2023-02-19T00:39:08.685Z,9.79
2023-02-19T00:41:35.531Z,9.93
2023-02-19T00:44:06.504Z,10.08
2023-02-19T00:46:39.849Z,10.03
2023-02-19T00:49:08.681Z,9.97
2023-02-19T00:51:38.135Z,10.08
2023-02-19T00:54:05.980Z,9.77
2023-02-19T00:56:33.548Z,9.77
2023-02-19T00:59:01.466Z,9.48
2023-02-19T01:01:28.291Z,9.52
2023-02-19T01:03:55.747Z,9.37
2023-02-19T01:06:23.411Z,9.74
2023-02-19T01:08:50.721Z,9.42
2023-02-19T01:11:18.692Z,9.39
2023-02-19T01:13:45.668Z,9.35
2023-02-19T01:16:15.454Z,9.72
2023-02-19T01:18:42.856Z,9.41
2023-02-19T01:21:14.778Z,9.34
2023-02-19T01:23:42.248Z,9.29
2023-02-19T01:26:12.925Z,9.15
2023-02-19T01:28:40.090Z,9.31
2023-02-19T01:31:11.212Z,9.31
2023-02-19T01:33:38.356Z,9.64
2023-02-19T01:36:07.291Z,9.35
2023-02-19T01:38:34.218Z,9.27
2023-02-19T01:41:04.135Z,9.62
2023-02-19T01:43:54.800Z,9.38
2023-02-19T01:46:21.790Z,9.88
2023-02-19T01:48:48.660Z,9.48
2023-02-19T01:51:19.695Z,9.63
2023-02-19T01:53:53.335Z,9.42
2023-02-19T01:56:21.938Z,9.34
2023-02-19T01:58:49.387Z,9.28
2023-02-19T02:01:16.292Z,9.23
2023-02-19T02:03:45.578Z,9.04
2023-02-19T02:06:30.358Z,9.05
2023-02-19T02:09:17.911Z,8.96
2023-02-19T02:11:49.554Z,9.04
2023-02-19T02:14:25.732Z,9.22
2023-02-19T02:17:21.264Z,9.23
2023-02-19T02:20:26.320Z,9.28
2023-02-19T02:23:30.369Z,9.41
2023-02-19T02:26:24.342Z,9.06
2023-02-19T02:29:04.035Z,8.80
2023-02-19T02:31:39.655Z,8.75
2023-02-19T02:34:14.421Z,8.70
2023-02-19T02:36:44.878Z,8.56
2023-02-19T02:39:19.935Z,8.50
2023-02-19T02:42:15.638Z,8.49
2023-02-19T02:45:20.521Z,8.51
2023-02-19T02:47:56.600Z,8.58
2023-02-19T02:50:34.394Z,8.66
2023-02-19T02:53:24.267Z,8.63
2023-02-19T02:55:53.482Z,8.68
2023-02-19T02:58:24.916Z,8.53
2023-02-19T03:01:18.394Z,8.48
2023-02-19T03:03:48.211Z,8.61
2023-02-19T03:06:19.986Z,8.72
2023-02-19T03:08:55.025Z,8.72
2023-02-19T03:11:40.471Z,8.93
2023-02-19T03:14:29.860Z,8.72
2023-02-19T03:17:22.420Z,8.61
2023-02-19T03:19:53.369Z,8.62
2023-02-19T03:22:25.969Z,8.53
2023-02-19T03:25:25.716Z,8.50
2023-02-19T03:27:54.429Z,8.61
2023-02-19T03:30:25.734Z,8.48
2023-02-19T03:32:59.690Z,8.54
2023-02-19T03:35:37.733Z,8.66
2023-02-19T03:38:13.534Z,8.71
2023-02-19T03:41:05.680Z,8.69
2023-02-19T03:43:53.760Z,8.60
2023-02-19T03:46:29.477Z,8.58
2023-02-19T03:49:01.892Z,8.46
2023-02-19T03:51:39.349Z,8.32
2023-02-19T03:54:23.816Z,7.98
2023-02-19T03:56:58.967Z,7.96
2023-02-19T03:59:51.539Z,8.01
2023-02-19T04:02:33.974Z,7.98
2023-02-19T04:05:08.272Z,7.96
2023-02-19T04:07:41.579Z,8.02
2023-02-19T04:10:10.488Z,7.91
2023-02-19T04:12:50.465Z,7.91
2023-02-19T04:15:23.467Z,8.01
2023-02-19T04:18:03.011Z,7.82
2023-02-19T04:20:34.926Z,7.76
2023-02-19T04:23:01.917Z,7.83
2023-02-19T04:25:30.004Z,7.76
2023-02-19T04:27:57.074Z,7.58
2023-02-19T04:30:23.938Z,7.57
2023-02-19T04:32:51.288Z,7.62
2023-02-19T04:35:18.115Z,7.54
2023-02-19T04:37:44.966Z,7.51
2023-02-19T04:40:11.959Z,7.58
2023-02-19T04:42:38.762Z,7.46
2023-02-19T04:45:05.992Z,7.50
2023-02-19T04:47:33.310Z,7.43
2023-02-19T04:50:00.170Z,7.44
2023-02-19T04:52:27.039Z,7.24
2023-02-19T04:54:53.848Z,7.32
2023-02-19T04:57:20.771Z,7.20
2023-02-19T04:59:47.701Z,7.19
2023-02-19T05:02:14.499Z,7.22
2023-02-19T05:04:41.568Z,7.15
2023-02-19T05:07:08.686Z,7.13
2023-02-19T05:09:35.585Z,7.07
2023-02-19T05:12:02.705Z,7.24
2023-02-19T05:14:29.546Z,7.37
2023-02-19T05:16:56.357Z,7.62
2023-02-19T05:19:23.247Z,7.59
2023-02-19T05:21:50.090Z,7.73
2023-02-19T05:24:16.919Z,7.94
2023-02-19T05:26:45.443Z,8.03
2023-02-19T05:29:12.389Z,7.98
2023-02-19T05:31:39.516Z,7.92
2023-02-19T05:34:06.421Z,7.70
2023-02-19T05:36:33.852Z,7.60
2023-02-19T05:39:00.829Z,7.82
2023-02-19T05:41:31.234Z,7.84
2023-02-19T05:44:03.518Z,8.05
2023-02-19T05:46:33.217Z,8.29
2023-02-19T05:49:00.135Z,8.40
2023-02-19T05:51:27.820Z,8.35
2023-02-19T05:53:56.382Z,8.44
2023-02-19T05:56:40.477Z,8.39
2023-02-19T05:59:16.448Z,8.46
2023-02-19T06:01:43.885Z,8.52
2023-02-19T06:04:11.859Z,8.56
2023-02-19T06:06:39.298Z,8.60
2023-02-19T06:09:06.937Z,8.75
2023-02-19T06:11:36.466Z,9.04
2023-02-19T06:14:03.649Z,9.30
2023-02-19T06:16:38.903Z,9.64
2023-02-19T06:19:10.973Z,9.74
2023-02-19T06:21:38.035Z,10.02
2023-02-19T06:24:08.174Z,10.20
2023-02-19T06:26:35.628Z,10.62
2023-02-19T06:29:02.817Z,10.76
2023-02-19T06:31:29.988Z,11.11
2023-02-19T06:33:56.974Z,11.41
2023-02-19T06:36:25.028Z,11.61
2023-02-19T06:38:51.917Z,11.91
2023-02-19T06:41:19.453Z,12.12
2023-02-19T06:43:46.776Z,12.31
2023-02-19T06:46:14.142Z,12.03
2023-02-19T06:48:44.327Z,12.28
2023-02-19T06:51:18.869Z,12.48
2023-02-19T06:53:46.314Z,12.94
2023-02-19T06:56:31.507Z,12.94
2023-02-19T06:59:00.534Z,12.84
2023-02-19T07:01:29.596Z,12.87
2023-02-19T07:03:56.722Z,12.93
2023-02-19T07:06:25.168Z,13.23
2023-02-19T07:08:53.047Z,13.54
2023-02-19T07:11:20.028Z,13.62
2023-02-19T07:13:47.043Z,13.79
2023-02-19T07:16:14.564Z,13.89
2023-02-19T07:18:41.376Z,14.24
2023-02-19T07:21:13.393Z,14.00
2023-02-19T07:23:43.449Z,14.41
2023-02-19T07:26:13.128Z,14.26
2023-02-19T07:28:48.075Z,14.68
2023-02-19T07:31:16.205Z,14.68
2023-02-19T07:33:44.725Z,15.13
2023-02-19T07:36:12.322Z,15.04
2023-02-19T07:38:40.023Z,15.05
2023-02-19T07:41:07.370Z,15.23
2023-02-19T07:43:36.541Z,15.23
2023-02-19T07:46:08.999Z,15.27
2023-02-19T07:48:37.316Z,15.75
2023-02-19T07:51:05.932Z,15.75
2023-02-19T07:53:35.207Z,15.75
2023-02-19T07:56:04.721Z,15.79
2023-02-19T07:58:31.989Z,16.06
2023-02-19T08:01:07.456Z,16.01
2023-02-19T08:03:35.563Z,16.17
2023-02-19T08:06:02.475Z,16.26
2023-02-19T08:08:29.583Z,16.63
2023-02-19T08:11:19.388Z,16.56
2023-02-19T08:13:48.237Z,16.49
2023-02-19T08:16:29.663Z,16.71
2023-02-19T08:19:04.306Z,16.95
2023-02-19T08:21:33.418Z,16.95
2023-02-19T08:24:01.558Z,17.12
2023-02-19T08:26:28.396Z,17.44
2023-02-19T08:28:55.197Z,17.70
2023-02-19T08:31:22.116Z,17.46
2023-02-19T08:33:49.137Z,17.55
2023-02-19T08:36:16.214Z,17.48
2023-02-19T08:38:43.628Z,17.32
2023-02-19T08:41:12.821Z,16.98
2023-02-19T08:43:43.425Z,16.73
2023-02-19T08:46:11.768Z,17.07
2023-02-19T08:48:39.483Z,17.25
2023-02-19T08:51:10.210Z,17.52
2023-02-19T08:53:38.581Z,17.93
2023-02-19T08:56:11.074Z,18.21
2023-02-19T08:58:38.475Z,18.27
2023-02-19T09:01:10.834Z,18.33
2023-02-19T09:03:38.020Z,18.74
2023-02-19T09:06:05.091Z,18.88
2023-02-19T09:08:31.957Z,18.97
2023-02-19T09:11:00.702Z,19.50
2023-02-19T09:13:27.747Z,19.80
2023-02-19T09:15:54.723Z,19.86
2023-02-19T09:18:21.656Z,20.05
2023-02-19T09:20:48.477Z,20.04
2023-02-19T09:23:15.359Z,20.09
2023-02-19T09:25:42.241Z,19.99
2023-02-19T09:28:09.620Z,19.87
2023-02-19T09:30:36.564Z,19.73
2023-02-19T09:33:05.810Z,19.96
2023-02-19T09:35:32.754Z,20.03
2023-02-19T09:38:01.100Z,20.12
2023-02-19T09:40:28.135Z,20.17
2023-02-19T09:42:55.044Z,20.28
2023-02-19T09:45:25.742Z,20.22
2023-02-19T09:47:58.269Z,19.74
2023-02-19T09:50:37.178Z,18.97
2023-02-19T09:53:11.971Z,18.55
2023-02-19T09:55:42.576Z,18.48
2023-02-19T09:58:22.618Z,18.69
2023-02-19T10:00:52.023Z,19.11
2023-02-19T10:03:33.821Z,19.35
2023-02-19T10:06:14.494Z,19.82
2023-02-19T10:08:42.802Z,20.22
2023-02-19T10:11:12.608Z,20.41
2023-02-19T10:13:51.065Z,20.54
2023-02-19T10:16:22.730Z,20.48
2023-02-19T10:18:49.785Z,20.26
2023-02-19T10:21:24.498Z,20.09
2023-02-19T10:23:55.886Z,19.66
2023-02-19T10:26:23.712Z,19.43
2023-02-19T10:28:50.611Z,19.67
2023-02-19T10:31:23.674Z,20.28
2023-02-19T10:33:52.830Z,20.17
2023-02-19T10:36:33.029Z,20.09
2023-02-19T10:39:02.154Z,19.79
2023-02-19T10:41:30.084Z,20.34
2023-02-19T10:44:21.062Z,20.91
2023-02-19T10:46:52.222Z,21.16
2023-02-19T10:49:37.443Z,21.30
2023-02-19T10:52:17.861Z,21.39
2023-02-19T10:54:46.728Z,21.45
2023-02-19T10:57:19.191Z,21.64
2023-02-19T10:59:50.731Z,21.65
2023-02-19T11:02:20.657Z,21.61
2023-02-19T11:05:15.238Z,21.75
2023-02-19T11:08:20.674Z,21.96
2023-02-19T11:10:49.652Z,21.87
2023-02-19T11:13:27.072Z,21.85
2023-02-19T11:15:55.463Z,22.02
2023-02-19T11:18:28.063Z,22.16
2023-02-19T11:20:57.760Z,22.26
2023-02-19T11:23:36.545Z,22.35
2023-02-19T11:26:06.617Z,22.39
2023-02-19T11:28:36.727Z,22.44
2023-02-19T11:31:27.981Z,22.41
2023-02-19T11:33:56.408Z,22.32
2023-02-19T11:36:23.221Z,22.16
2023-02-19T11:38:50.079Z,22.24
2023-02-19T11:41:47.818Z,22.35
2023-02-19T11:44:30.204Z,22.53
2023-02-19T11:47:34.238Z,22.43
2023-02-19T11:50:12.794Z,22.19
2023-02-19T11:52:49.096Z,22.17
2023-02-19T11:55:42.950Z,22.12
2023-02-19T11:58:38.396Z,22.14
2023-02-19T12:01:17.028Z,22.10
2023-02-19T12:04:21.759Z,22.11
2023-02-19T12:06:51.494Z,22.15
2023-02-19T12:09:36.743Z,21.85
2023-02-19T12:12:18.678Z,21.51
2023-02-19T12:15:02.897Z,21.38
2023-02-19T12:18:04.218Z,21.41
2023-02-19T12:20:58.892Z,21.50
2023-02-19T12:23:43.746Z,21.42
2023-02-19T12:26:21.143Z,21.48
2023-02-19T12:29:00.658Z,21.39
2023-02-19T12:31:55.276Z,21.40
2023-02-19T12:34:31.137Z,21.45
2023-02-19T12:37:27.942Z,21.33
2023-02-19T12:40:23.948Z,21.49
2023-02-19T12:42:56.620Z,21.64
2023-02-19T12:45:38.828Z,21.78
2023-02-19T12:48:34.023Z,21.78
2023-02-19T12:51:21.671Z,21.77
2023-02-19T12:54:01.615Z,21.82
2023-02-19T12:56:34.717Z,21.69
2023-02-19T12:59:12.316Z,21.73
2023-02-19T13:01:47.932Z,21.73
2023-02-19T13:04:37.425Z,21.80
2023-02-19T13:07:17.035Z,22.06
2023-02-19T13:10:10.145Z,22.16
2023-02-19T13:12:44.255Z,22.07
2023-02-19T13:15:38.752Z,22.15
2023-02-19T13:18:13.810Z,22.18
2023-02-19T13:20:46.678Z,22.18
2023-02-19T13:23:41.314Z,22.23
2023-02-19T13:26:30.923Z,22.36
2023-02-19T13:29:03.498Z,22.38
2023-02-19T13:31:45.362Z,22.28
2023-02-19T13:34:36.551Z,22.17
2023-02-19T13:37:04.483Z,22.20
2023-02-19T13:39:31.512Z,22.22
2023-02-19T13:41:59.422Z,22.11
2023-02-19T13:44:28.866Z,22.05
2023-02-19T13:46:56.710Z,22.05
2023-02-19T13:49:29.693Z,22.02
2023-02-19T13:52:00.449Z,21.96
2023-02-19T13:54:40.048Z,21.95
2023-02-19T13:57:22.571Z,22.02
2023-02-19T13:59:54.390Z,22.06
2023-02-19T14:02:21.285Z,22.04
2023-02-19T14:04:51.961Z,21.71
2023-02-19T14:07:18.809Z,21.80
2023-02-19T14:09:46.794Z,21.82
2023-02-19T14:12:15.708Z,21.87
2023-02-19T14:14:55.106Z,21.75
2023-02-19T14:17:43.806Z,21.81
2023-02-19T14:20:16.400Z,21.84
2023-02-19T14:23:03.779Z,21.73
2023-02-19T14:25:43.770Z,21.65
2023-02-19T14:28:10.617Z,21.51
2023-02-19T14:30:49.420Z,21.43
2023-02-19T14:33:19.578Z,21.30
2023-02-19T14:35:49.166Z,21.32
2023-02-19T14:38:59.219Z,21.32
2023-02-19T14:41:30.225Z,21.44
2023-02-19T14:44:00.395Z,21.48
2023-02-19T14:46:43.915Z,21.38
2023-02-19T14:49:25.807Z,21.35
2023-02-19T14:52:00.044Z,20.92
2023-02-19T14:54:42.090Z,20.86
2023-02-19T14:57:25.833Z,20.93
2023-02-19T14:59:58.738Z,20.76
2023-02-19T15:02:27.496Z,20.70
2023-02-19T15:04:55.232Z,20.37
2023-02-19T15:07:30.293Z,20.25
2023-02-19T15:10:05.855Z,20.18
2023-02-19T15:12:40.156Z,20.10
2023-02-19T15:15:07.616Z,19.95
2023-02-19T15:17:37.194Z,19.76
2023-02-19T15:20:12.399Z,19.54
2023-02-19T15:22:41.683Z,19.36
2023-02-19T15:25:20.191Z,19.25
2023-02-19T15:27:47.662Z,19.42
2023-02-19T15:30:31.256Z,19.08
2023-02-19T15:33:01.119Z,18.97
2023-02-19T15:35:30.367Z,18.84
2023-02-19T15:37:57.355Z,18.85
2023-02-19T15:40:31.231Z,18.90
2023-02-19T15:43:00.135Z,19.12
2023-02-19T15:45:37.778Z,18.82
2023-02-19T15:48:09.592Z,18.46
2023-02-19T15:50:39.370Z,18.49
2023-02-19T15:53:16.854Z,18.29
2023-02-19T15:56:09.949Z,18.30
2023-02-19T15:58:45.688Z,18.31
2023-02-19T16:01:25.426Z,18.28
2023-02-19T16:03:56.071Z,18.18
2023-02-19T16:06:25.785Z,18.01
2023-02-19T16:08:52.527Z,17.88
2023-02-19T16:11:47.724Z,17.88
2023-02-19T16:14:25.202Z,17.78
2023-02-19T16:17:09.969Z,17.74
2023-02-19T16:19:44.533Z,17.89
2023-02-19T16:22:18.858Z,17.81
2023-02-19T16:24:48.099Z,17.78
2023-02-19T16:27:47.586Z,17.79
2023-02-19T16:30:17.633Z,17.62
2023-02-19T16:32:46.997Z,17.72
2023-02-19T16:35:36.845Z,17.57
2023-02-19T16:38:03.518Z,17.51
2023-02-19T16:40:40.961Z,17.49
2023-02-19T16:43:26.615Z,17.62
2023-02-19T16:45:53.825Z,17.55
2023-02-19T16:48:23.052Z,17.62
2023-02-19T16:50:50.222Z,17.79
2023-02-19T16:53:22.423Z,17.69
2023-02-19T16:55:49.400Z,17.93
2023-02-19T16:58:16.191Z,17.83
2023-02-19T17:00:43.499Z,17.91
2023-02-19T17:03:17.694Z,17.79
2023-02-19T17:05:45.055Z,17.39
2023-02-19T17:08:37.153Z,17.48
2023-02-19T17:11:07.236Z,17.51
2023-02-19T17:13:34.092Z,17.39
2023-02-19T17:16:01.349Z,17.26
2023-02-19T17:18:28.646Z,17.15
2023-02-19T17:21:05.603Z,17.12
2023-02-19T17:23:32.380Z,16.83
2023-02-19T17:25:59.213Z,16.95
2023-02-19T17:28:26.186Z,16.94
2023-02-19T17:30:53.117Z,16.81
2023-02-19T17:33:19.936Z,16.42
2023-02-19T17:35:46.742Z,16.28
2023-02-19T17:38:14.742Z,16.28
2023-02-19T17:40:41.586Z,16.25
2023-02-19T17:43:08.568Z,16.14
2023-02-19T17:45:35.587Z,15.99
2023-02-19T17:48:02.523Z,15.82
2023-02-19T17:50:31.597Z,15.79
2023-02-19T17:52:59.140Z,15.81
2023-02-19T17:55:26.641Z,15.90
2023-02-19T17:57:54.056Z,16.12
2023-02-19T18:00:27.452Z,16.00
2023-02-19T18:02:54.619Z,15.66
2023-02-19T18:05:22.482Z,15.36
2023-02-19T18:07:50.162Z,15.51
2023-02-19T18:10:19.105Z,15.24
2023-02-19T18:12:46.184Z,15.22
2023-02-19T18:15:26.934Z,15.20
2023-02-19T18:17:54.993Z,15.20
2023-02-19T18:20:24.609Z,15.23
2023-02-19T18:22:51.729Z,15.18
2023-02-19T18:25:19.674Z,14.96
2023-02-19T18:27:47.341Z,14.75
2023-02-19T18:30:18.448Z,14.84
2023-02-19T18:32:48.203Z,14.89
2023-02-19T18:35:17.007Z,14.84
2023-02-19T18:37:43.874Z,14.81
2023-02-19T18:40:11.593Z,15.00
2023-02-19T18:42:40.031Z,15.05
2023-02-19T18:45:08.074Z,15.14
2023-02-19T18:47:34.916Z,15.23
2023-02-19T18:50:01.852Z,15.71
2023-02-19T18:52:28.655Z,15.66
2023-02-19T18:54:57.443Z,15.85
2023-02-19T18:57:26.295Z,15.68
2023-02-19T18:59:53.187Z,15.69
2023-02-19T19:02:20.154Z,15.58
2023-02-19T19:04:52.456Z,15.42
2023-02-19T19:07:20.679Z,15.45
2023-02-19T19:09:48.156Z,15.37
2023-02-19T19:12:15.596Z,15.35
2023-02-19T19:14:43.059Z,15.22
2023-02-19T19:17:10.138Z,15.25
2023-02-19T19:19:36.990Z,15.28
2023-02-19T19:22:03.918Z,15.31
2023-02-19T19:24:30.794Z,15.33
2023-02-19T19:26:57.918Z,15.23
2023-02-19T19:29:25.085Z,15.23
2023-02-19T19:31:52.047Z,15.14
2023-02-19T19:34:19.362Z,15.19
2023-02-19T19:36:47.169Z,15.26
2023-02-19T19:39:14.229Z,15.33
2023-02-19T19:41:41.145Z,15.19
2023-02-19T19:44:08.865Z,15.20
2023-02-19T19:46:42.328Z,15.09
2023-02-19T19:49:09.215Z,15.12
2023-02-19T19:51:36.189Z,15.00
2023-02-19T19:54:05.828Z,14.88
2023-02-19T19:56:32.833Z,14.88
2023-02-19T19:58:59.714Z,14.85
2023-02-19T20:01:26.581Z,14.91
2023-02-19T20:03:53.468Z,14.81
2023-02-19T20:06:26.188Z,14.86
2023-02-19T20:08:53.169Z,14.77
2023-02-19T20:11:20.144Z,14.72
2023-02-19T20:13:47.042Z,14.69
2023-02-19T20:16:14.720Z,14.55
2023-02-19T20:18:42.231Z,14.59
2023-02-19T20:21:10.677Z,14.55
2023-02-19T20:23:40.687Z,14.68
2023-02-19T20:26:07.814Z,14.78
2023-02-19T20:28:34.811Z,14.91
2023-02-19T20:31:01.642Z,14.89
2023-02-19T20:33:28.533Z,14.86
2023-02-19T20:35:57.009Z,14.98
2023-02-19T20:38:24.002Z,14.87
2023-02-19T20:40:50.869Z,14.78
2023-02-19T20:43:17.930Z,14.91
2023-02-19T20:45:46.560Z,14.54
2023-02-19T20:48:17.634Z,14.52
2023-02-19T20:50:44.684Z,14.34
2023-02-19T20:53:14.665Z,14.36
2023-02-19T20:55:41.609Z,14.38
2023-02-19T20:58:08.592Z,14.43
2023-02-19T21:00:35.440Z,14.24
2023-02-19T21:03:02.305Z,14.23
2023-02-19T21:05:29.334Z,14.22
2023-02-19T21:07:56.144Z,13.97
2023-02-19T21:10:23.172Z,14.00
2023-02-19T21:12:52.155Z,14.11
2023-02-19T21:15:20.157Z,13.85
2023-02-19T21:17:47.475Z,13.89
2023-02-19T21:20:15.030Z,13.84
2023-02-19T21:22:41.894Z,13.97
2023-02-19T21:25:08.749Z,13.90
2023-02-19T21:27:35.619Z,13.91
2023-02-19T21:30:03.253Z,14.19
2023-02-19T21:32:30.144Z,14.18
2023-02-19T21:34:57.134Z,13.97
2023-02-19T21:37:23.968Z,14.01
2023-02-19T21:39:50.919Z,14.21
2023-02-19T21:42:17.917Z,14.29
2023-02-19T21:44:44.718Z,14.25
2023-02-19T21:47:12.690Z,14.72
2023-02-19T21:49:41.856Z,15.29
2023-02-19T21:52:09.293Z,15.80
2023-02-19T21:54:36.188Z,16.03
2023-02-19T21:57:03.730Z,16.18
2023-02-19T21:59:30.593Z,16.09
2023-02-19T22:01:57.404Z,16.06
2023-02-19T22:04:24.672Z,16.06
2023-02-19T22:06:54.770Z,16.14
2023-02-19T22:09:21.752Z,16.35
2023-02-19T22:11:48.581Z,16.24
2023-02-19T22:14:15.579Z,16.27
2023-02-19T22:16:42.464Z,16.35
2023-02-19T22:19:12.149Z,16.29
2023-02-19T22:21:43.841Z,16.32
2023-02-19T22:24:19.768Z,16.20
2023-02-19T22:26:50.662Z,16.26
2023-02-19T22:29:18.169Z,16.29
2023-02-19T22:31:45.249Z,16.39
2023-02-19T22:34:12.269Z,16.34
2023-02-19T22:36:39.824Z,16.26
2023-02-19T22:39:08.491Z,16.03
2023-02-19T22:41:35.655Z,15.92
2023-02-19T22:44:02.646Z,15.82
2023-02-19T22:46:31.190Z,15.66
2023-02-19T22:48:58.775Z,15.51
2023-02-19T22:51:26.092Z,15.46
2023-02-19T22:53:55.257Z,15.45
2023-02-19T22:56:25.886Z,15.42
2023-02-19T22:58:54.239Z,15.34
2023-02-19T23:01:21.618Z,15.39
2023-02-19T23:03:50.634Z,15.39
2023-02-19T23:06:21.104Z,15.27
2023-02-19T23:08:47.964Z,15.25
2023-02-19T23:11:24.442Z,15.21
2023-02-19T23:13:52.042Z,15.25
2023-02-19T23:16:19.203Z,15.17
2023-02-19T23:18:46.259Z,15.20
2023-02-19T23:21:13.407Z,15.23
2023-02-19T23:23:44.524Z,15.10
2023-02-19T23:26:12.903Z,15.16
2023-02-19T23:28:43.568Z,15.05
2023-02-19T23:31:11.261Z,15.04
2023-02-19T23:33:38.521Z,15.12
2023-02-19T23:36:06.145Z,15.03
2023-02-19T23:38:33.025Z,15.19
2023-02-19T23:41:00.301Z,15.21
2023-02-19T23:43:27.317Z,15.15
2023-02-19T23:45:54.339Z,15.07
2023-02-19T23:48:21.253Z,15.11
2023-02-19T23:50:48.103Z,15.12
2023-02-19T23:53:14.971Z,15.11
2023-02-19T23:55:41.835Z,15.25
2023-02-19T23:58:08.683Z,15.21
